createdAt,value
2023-02-16T00:00:43.175Z,73.80
2023-02-16T00:03:15.331Z,74.00
2023-02-16T00:05:42.196Z,74.10
2023-02-16T00:08:08.870Z,74.30
2023-02-16T00:10:36.439Z,74.20
2023-02-16T00:13:06.055Z,74.30
2023-02-16T00:15:32.787Z,74.30
2023-02-16T00:18:00.171Z,74.20
2023-02-16T00:20:26.817Z,74.40
2023-02-16T00:22:53.450Z,74.50
2023-02-16T00:25:20.127Z,74.50
2023-02-16T00:27:46.767Z,74.50
2023-02-16T00:30:18.281Z,74.50
2023-02-16T00:32:44.955Z,74.60
2023-02-16T00:35:18.549Z,74.70
2023-02-16T00:37:46.169Z,74.80
2023-02-16T00:40:13.732Z,74.90
2023-02-16T00:42:40.398Z,75.10
2023-02-16T00:45:11.077Z,75.10
2023-02-16T00:47:41.804Z,75.10
2023-02-16T00:50:15.143Z,75.10
2023-02-16T00:52:41.947Z,75.10
2023-02-16T00:55:19.533Z,75.40
2023-02-16T00:57:55.692Z,75.50
2023-02-16T01:00:27.109Z,75.50
2023-02-16T01:02:56.826Z,76.40
2023-02-16T01:05:23.524Z,75.70
2023-02-16T01:07:50.228Z,75.50
2023-02-16T01:10:20.090Z,75.50
2023-02-16T01:12:46.659Z,75.50
2023-02-16T01:15:14.234Z,75.80
2023-02-16T01:17:40.904Z,75.80
2023-02-16T01:20:15.589Z,76.00
2023-02-16T01:22:42.171Z,76.00
2023-02-16T01:25:08.984Z,76.00
2023-02-16T01:27:37.482Z,76.10
2023-02-16T01:30:11.267Z,76.10
2023-02-16T01:32:37.958Z,76.10
2023-02-16T01:35:04.921Z,76.20
2023-02-16T01:37:31.588Z,76.10
2023-02-16T01:39:58.191Z,76.20
2023-02-16T01:42:41.315Z,76.30
2023-02-16T01:45:15.980Z,76.30
2023-02-16T01:47:47.729Z,76.30
2023-02-16T01:50:17.476Z,76.20
2023-02-16T01:52:47.852Z,76.30
2023-02-16T01:55:47.983Z,76.20
2023-02-16T01:58:24.585Z,76.20
2023-02-16T02:03:34.512Z,76.20
2023-02-16T02:06:01.111Z,76.10
2023-02-16T02:08:45.271Z,76.10
2023-02-16T02:11:27.890Z,76.20
2023-02-16T02:14:07.429Z,76.40
2023-02-16T02:16:34.092Z,76.50
2023-02-16T02:19:00.793Z,76.70
2023-02-16T02:22:01.121Z,76.70
2023-02-16T02:24:30.581Z,76.60
2023-02-16T02:27:08.285Z,76.70
2023-02-16T02:30:01.550Z,76.70
2023-02-16T02:32:52.594Z,76.90
2023-02-16T02:35:31.279Z,77.00
2023-02-16T02:38:33.334Z,77.10
2023-02-16T02:41:41.172Z,77.30
2023-02-16T02:44:07.864Z,77.40
2023-02-16T02:46:34.804Z,77.50
2023-02-16T02:49:01.535Z,77.50
2023-02-16T02:51:28.267Z,77.50
2023-02-16T02:54:11.982Z,77.50
2023-02-16T02:56:39.345Z,77.60
2023-02-16T02:59:07.364Z,77.60
2023-02-16T03:01:34.432Z,77.70
2023-02-16T03:04:01.084Z,77.90
2023-02-16T03:06:30.308Z,77.90
2023-02-16T03:09:02.573Z,78.00
2023-02-16T03:11:29.355Z,78.00
2023-02-16T03:14:07.246Z,78.10
2023-02-16T03:16:45.538Z,78.00
2023-02-16T03:19:13.228Z,78.00
2023-02-16T03:21:39.928Z,78.00
2023-02-16T03:24:09.123Z,78.00
2023-02-16T03:26:36.315Z,78.00
2023-02-16T03:29:02.987Z,78.00
2023-02-16T03:31:34.718Z,78.10
2023-02-16T03:34:01.504Z,78.10
2023-02-16T03:36:29.473Z,78.20
2023-02-16T03:38:56.308Z,78.20
2023-02-16T03:41:23.997Z,78.20
2023-02-16T03:43:50.644Z,78.20
2023-02-16T03:46:17.326Z,78.20
2023-02-16T03:48:43.943Z,78.30
2023-02-16T03:51:10.554Z,78.30
2023-02-16T03:53:37.215Z,78.20
2023-02-16T03:56:03.862Z,78.30
2023-02-16T03:58:30.525Z,78.30
2023-02-16T04:00:57.177Z,78.20
2023-02-16T04:03:23.778Z,78.10
2023-02-16T04:05:53.088Z,78.20
2023-02-16T04:08:19.764Z,78.30
2023-02-16T04:10:46.417Z,78.20
2023-02-16T04:13:13.082Z,78.20
2023-02-16T04:15:39.859Z,78.30
2023-02-16T04:18:06.576Z,78.30
2023-02-16T04:20:33.752Z,78.30
2023-02-16T04:23:00.763Z,78.30
2023-02-16T04:25:27.674Z,78.30
2023-02-16T04:27:54.463Z,78.30
2023-02-16T04:30:25.997Z,78.30
2023-02-16T04:32:52.829Z,78.30
2023-02-16T04:35:19.634Z,78.40
2023-02-16T04:37:46.281Z,78.40
2023-02-16T04:40:13.907Z,78.30
2023-02-16T04:42:43.928Z,78.20
2023-02-16T04:45:10.717Z,78.30
2023-02-16T04:47:37.585Z,78.70
2023-02-16T04:50:04.760Z,78.30
2023-02-16T04:52:31.496Z,78.30
2023-02-16T04:54:58.208Z,78.30
2023-02-16T04:57:24.975Z,78.40
2023-02-16T04:59:51.593Z,78.50
2023-02-16T05:02:18.281Z,78.50
2023-02-16T05:04:45.053Z,78.50
2023-02-16T05:07:12.053Z,78.50
2023-02-16T05:09:38.676Z,78.50
2023-02-16T05:12:05.401Z,78.50
2023-02-16T05:14:33.262Z,78.60
2023-02-16T05:16:59.945Z,78.60
2023-02-16T05:19:26.571Z,78.60
2023-02-16T05:21:53.168Z,78.70
2023-02-16T05:24:19.841Z,78.60
2023-02-16T05:26:46.508Z,78.60
2023-02-16T05:29:13.197Z,78.80
2023-02-16T05:31:39.949Z,78.80
2023-02-16T05:34:06.601Z,78.80
2023-02-16T05:36:33.225Z,78.80
2023-02-16T05:38:59.907Z,78.90
2023-02-16T05:41:26.575Z,78.90
2023-02-16T05:43:58.008Z,79.00
2023-02-16T05:46:25.039Z,79.00
2023-02-16T05:48:51.850Z,79.10
2023-02-16T05:51:18.843Z,79.10
2023-02-16T05:53:45.633Z,79.20
2023-02-16T05:56:12.483Z,79.20
2023-02-16T05:58:39.278Z,79.20
2023-02-16T06:01:06.269Z,79.10
2023-02-16T06:03:33.126Z,79.20
2023-02-16T06:06:00.577Z,79.20
2023-02-16T06:08:27.354Z,79.00
2023-02-16T06:10:54.287Z,79.20
2023-02-16T06:13:21.464Z,79.10
2023-02-16T06:15:48.164Z,79.10
2023-02-16T06:18:14.771Z,79.10
2023-02-16T06:20:41.630Z,79.00
2023-02-16T06:23:08.644Z,79.00
2023-02-16T06:25:35.280Z,78.90
2023-02-16T06:28:01.874Z,79.10
2023-02-16T06:30:29.203Z,79.00
2023-02-16T06:32:55.920Z,79.00
2023-02-16T06:35:22.534Z,79.10
2023-02-16T06:37:49.161Z,79.20
2023-02-16T06:40:16.237Z,79.20
2023-02-16T06:42:43.045Z,79.20
2023-02-16T06:45:09.925Z,79.20
2023-02-16T06:47:37.060Z,79.10
2023-02-16T06:50:04.991Z,79.10
2023-02-16T06:52:31.691Z,79.10
2023-02-16T06:54:58.291Z,79.20
2023-02-16T06:57:24.942Z,79.10
2023-02-16T06:59:51.569Z,79.20
2023-02-16T07:02:18.459Z,79.20
2023-02-16T07:04:45.078Z,79.30
2023-02-16T07:07:11.945Z,79.60
2023-02-16T07:09:38.720Z,79.50
2023-02-16T07:12:05.565Z,79.50
2023-02-16T07:14:32.293Z,79.50
2023-02-16T07:16:58.959Z,79.60
2023-02-16T07:19:25.690Z,79.60
2023-02-16T07:21:52.287Z,79.70
2023-02-16T07:24:18.939Z,79.70
2023-02-16T07:26:45.631Z,79.80
2023-02-16T07:29:12.221Z,79.80
2023-02-16T07:31:38.960Z,79.80
2023-02-16T07:34:05.765Z,79.80
2023-02-16T07:36:32.417Z,79.80
2023-02-16T07:38:59.038Z,79.80
2023-02-16T07:41:25.700Z,79.80
2023-02-16T07:43:52.348Z,79.90
2023-02-16T07:46:18.977Z,79.90
2023-02-16T07:48:49.287Z,80.00
2023-02-16T07:51:23.199Z,79.90
2023-02-16T07:53:50.027Z,79.90
2023-02-16T07:56:27.619Z,80.00
2023-02-16T07:58:58.226Z,79.90
2023-02-16T08:01:25.222Z,79.90
2023-02-16T08:03:54.969Z,79.90
2023-02-16T08:06:21.731Z,80.00
2023-02-16T08:08:48.456Z,79.90
2023-02-16T08:11:16.167Z,80.00
2023-02-16T08:13:43.700Z,79.90
2023-02-16T08:16:11.599Z,79.80
2023-02-16T08:18:38.856Z,79.70
2023-02-16T08:21:13.512Z,79.70
2023-02-16T08:23:44.718Z,79.80
2023-02-16T08:26:11.703Z,79.90
2023-02-16T08:28:38.415Z,79.80
2023-02-16T08:31:05.532Z,79.90
2023-02-16T08:33:32.392Z,79.80
2023-02-16T08:35:59.089Z,80.00
2023-02-16T08:38:25.668Z,79.90
2023-02-16T08:40:52.308Z,80.20
2023-02-16T08:43:18.999Z,80.10
2023-02-16T08:45:46.789Z,80.60
2023-02-16T08:48:13.914Z,80.70
2023-02-16T08:50:47.395Z,80.80
2023-02-16T08:53:14.403Z,81.50
2023-02-16T08:55:41.080Z,81.60
2023-02-16T08:58:07.730Z,81.80
2023-02-16T09:00:34.331Z,81.90
2023-02-16T09:03:01.072Z,82.00
2023-02-16T09:05:27.832Z,82.60
2023-02-16T09:07:55.095Z,82.40
2023-02-16T09:10:22.379Z,82.30
2023-02-16T09:12:49.402Z,82.90
2023-02-16T09:15:16.506Z,82.70
2023-02-16T09:17:43.510Z,83.20
2023-02-16T09:20:10.667Z,83.00
2023-02-16T09:22:37.296Z,83.50
2023-02-16T09:25:04.007Z,83.80
2023-02-16T09:27:30.678Z,84.10
2023-02-16T09:29:57.299Z,84.00
2023-02-16T09:32:28.603Z,84.20
2023-02-16T09:34:55.519Z,84.20
2023-02-16T09:37:22.288Z,84.60
2023-02-16T09:39:48.956Z,84.60
2023-02-16T09:42:20.429Z,84.60
2023-02-16T09:45:12.166Z,85.20
2023-02-16T09:47:40.846Z,85.50
2023-02-16T09:50:38.302Z,85.30
2023-02-16T09:53:08.453Z,85.30
2023-02-16T09:55:47.543Z,85.40
2023-02-16T09:58:21.751Z,85.60
2023-02-16T10:00:52.089Z,85.80
2023-02-16T10:03:46.656Z,85.80
2023-02-16T10:06:13.284Z,85.70
2023-02-16T10:08:53.891Z,85.70
2023-02-16T10:11:30.828Z,85.80
2023-02-16T10:13:58.857Z,86.00
2023-02-16T10:16:30.085Z,86.20
2023-02-16T10:18:56.731Z,86.50
2023-02-16T10:21:25.324Z,86.90
2023-02-16T10:24:02.882Z,87.30
2023-02-16T10:26:34.872Z,87.30
2023-02-16T10:29:21.783Z,87.20
2023-02-16T10:31:54.694Z,86.50
2023-02-16T10:34:37.026Z,86.50
2023-02-16T10:37:27.983Z,86.70
2023-02-16T10:40:28.751Z,87.00
2023-02-16T10:43:06.219Z,87.10
2023-02-16T10:45:56.596Z,86.90
2023-02-16T10:48:23.456Z,86.30
2023-02-16T10:50:50.272Z,86.00
2023-02-16T10:53:33.764Z,85.40
2023-02-16T10:56:00.512Z,85.20
2023-02-16T10:58:36.670Z,85.10
2023-02-16T11:01:11.786Z,85.00
2023-02-16T11:03:43.875Z,84.90
2023-02-16T11:06:18.591Z,84.80
2023-02-16T11:08:49.535Z,84.80
2023-02-16T11:11:16.227Z,84.90
2023-02-16T11:13:42.911Z,84.80
2023-02-16T11:16:11.486Z,85.20
2023-02-16T11:18:42.834Z,85.60
2023-02-16T11:21:10.323Z,84.90
2023-02-16T11:23:41.526Z,84.10
2023-02-16T11:26:22.398Z,82.40
2023-02-16T11:28:49.569Z,81.30
2023-02-16T11:31:31.831Z,81.60
2023-02-16T11:34:03.848Z,81.00
2023-02-16T11:36:34.531Z,80.30
2023-02-16T11:39:09.737Z,79.10
2023-02-16T11:41:37.688Z,77.60
2023-02-16T11:44:04.525Z,76.60
2023-02-16T11:46:39.013Z,75.70
2023-02-16T11:49:27.779Z,74.50
2023-02-16T11:51:54.466Z,73.90
2023-02-16T11:54:21.313Z,74.50
2023-02-16T11:57:08.281Z,73.40
2023-02-16T11:59:38.960Z,71.40
2023-02-16T12:02:08.437Z,71.70
2023-02-16T12:05:12.711Z,70.60
2023-02-16T12:08:00.854Z,68.60
2023-02-16T12:10:36.692Z,67.70
2023-02-16T12:13:15.257Z,65.30
2023-02-16T12:16:15.087Z,65.70
2023-02-16T12:19:09.373Z,65.50
2023-02-16T12:21:37.444Z,65.60
2023-02-16T12:24:22.849Z,64.20
2023-02-16T12:27:01.463Z,65.70
2023-02-16T12:30:06.149Z,64.90
2023-02-16T12:33:18.933Z,64.70
2023-02-16T12:36:01.678Z,64.10
2023-02-16T12:38:41.481Z,64.10
2023-02-16T12:41:40.149Z,63.80
2023-02-16T12:44:28.583Z,62.60
2023-02-16T12:47:04.922Z,62.20
2023-02-16T12:49:56.053Z,62.20
2023-02-16T12:52:38.929Z,62.30
2023-02-16T12:55:26.559Z,62.30
2023-02-16T12:58:04.089Z,62.90
2023-02-16T13:00:44.279Z,63.70
2023-02-16T13:03:19.626Z,64.10
2023-02-16T13:05:49.003Z,64.50
2023-02-16T13:08:36.872Z,64.90
2023-02-16T13:11:05.367Z,65.20
2023-02-16T13:13:33.340Z,64.40
2023-02-16T13:16:30.411Z,63.70
2023-02-16T13:18:57.548Z,63.30
2023-02-16T13:21:27.325Z,63.60
2023-02-16T13:24:23.681Z,63.80
2023-02-16T13:27:15.807Z,63.90
2023-02-16T13:30:03.550Z,64.10
2023-02-16T13:32:30.233Z,64.00
2023-02-16T13:35:24.564Z,64.00
2023-02-16T13:37:51.191Z,63.80
2023-02-16T13:40:45.286Z,63.80
2023-02-16T13:43:30.046Z,63.90
2023-02-16T13:45:56.781Z,64.10
2023-02-16T13:48:35.823Z,64.40
2023-02-16T13:51:11.444Z,64.80
2023-02-16T13:53:41.645Z,65.00
2023-02-16T13:56:29.317Z,65.30
2023-02-16T13:59:00.114Z,65.10
2023-02-16T14:01:32.667Z,65.40
2023-02-16T14:03:59.950Z,65.50
2023-02-16T14:06:26.611Z,65.60
2023-02-16T14:09:16.643Z,65.70
2023-02-16T14:11:53.662Z,65.80
2023-02-16T14:14:30.393Z,66.00
2023-02-16T14:17:17.485Z,66.00
2023-02-16T14:19:55.849Z,65.90
2023-02-16T14:22:39.508Z,65.90
2023-02-16T14:25:26.881Z,65.30
2023-02-16T14:28:00.797Z,65.00
2023-02-16T14:30:45.257Z,65.20
2023-02-16T14:33:14.837Z,65.30
2023-02-16T14:35:43.354Z,65.60
2023-02-16T14:38:31.839Z,66.20
2023-02-16T14:41:13.186Z,67.40
2023-02-16T14:43:40.661Z,68.60
2023-02-16T14:46:10.297Z,68.50
2023-02-16T14:48:55.204Z,69.80
2023-02-16T14:51:51.135Z,71.90
2023-02-16T14:54:50.106Z,72.40
2023-02-16T14:57:24.211Z,73.10
2023-02-16T14:59:56.883Z,73.90
2023-02-16T15:02:36.349Z,74.40
2023-02-16T15:05:22.940Z,75.00
2023-02-16T15:07:51.906Z,75.80
2023-02-16T15:10:25.643Z,76.40
2023-02-16T15:12:55.854Z,76.40
2023-02-16T15:15:29.905Z,76.90
2023-02-16T15:17:56.531Z,77.20
2023-02-16T15:20:28.305Z,77.50
2023-02-16T15:23:02.795Z,77.60
2023-02-16T15:25:34.505Z,77.80
2023-02-16T15:28:10.796Z,77.90
2023-02-16T15:30:47.886Z,77.80
2023-02-16T15:33:24.477Z,78.00
2023-02-16T15:36:07.525Z,78.00
2023-02-16T15:38:35.933Z,78.50
2023-02-16T15:41:08.930Z,78.00
2023-02-16T15:43:49.188Z,78.30
2023-02-16T15:46:36.185Z,78.60
2023-02-16T15:49:22.846Z,78.50
2023-02-16T15:51:49.518Z,78.60
2023-02-16T15:54:25.441Z,78.60
2023-02-16T15:56:52.992Z,78.70
2023-02-16T15:59:39.386Z,78.60
2023-02-16T16:02:27.487Z,78.70
2023-02-16T16:05:01.693Z,78.60
2023-02-16T16:07:33.331Z,78.40
2023-02-16T16:10:00.033Z,78.00
2023-02-16T16:12:26.676Z,77.90
2023-02-16T16:15:00.492Z,77.70
2023-02-16T16:17:34.266Z,77.60
2023-02-16T16:20:36.209Z,77.60
2023-02-16T16:23:22.935Z,77.70
2023-02-16T16:25:49.716Z,77.50
2023-02-16T16:28:28.775Z,77.80
2023-02-16T16:31:17.437Z,78.10
2023-02-16T16:34:06.220Z,78.60
2023-02-16T16:36:33.900Z,78.90
2023-02-16T16:39:18.859Z,79.00
2023-02-16T16:42:16.328Z,79.40
2023-02-16T16:44:45.189Z,80.20
2023-02-16T16:47:41.614Z,79.70
2023-02-16T16:50:11.091Z,80.20
2023-02-16T16:52:39.446Z,80.50
2023-02-16T16:55:21.179Z,80.00
2023-02-16T16:58:06.832Z,80.80
2023-02-16T17:00:37.859Z,81.10
2023-02-16T17:03:06.918Z,80.70
2023-02-16T17:05:34.703Z,80.60
2023-02-16T17:08:01.535Z,80.80
2023-02-16T17:10:28.279Z,80.60
2023-02-16T17:12:58.657Z,80.60
2023-02-16T17:16:01.121Z,80.60
2023-02-16T17:18:27.879Z,81.00
2023-02-16T17:20:54.632Z,80.70
2023-02-16T17:23:21.773Z,80.90
2023-02-16T17:25:48.578Z,80.70
2023-02-16T17:28:15.851Z,80.90
2023-02-16T17:30:42.692Z,80.90
2023-02-16T17:33:09.905Z,80.90
2023-02-16T17:35:37.775Z,81.00
2023-02-16T17:38:17.510Z,80.90
2023-02-16T17:40:46.992Z,81.00
2023-02-16T17:43:14.048Z,81.00
2023-02-16T17:45:41.250Z,81.10
2023-02-16T17:48:08.896Z,81.30
2023-02-16T17:50:35.723Z,81.30
2023-02-16T17:53:02.501Z,81.70
2023-02-16T17:55:29.159Z,81.80
2023-02-16T17:57:55.767Z,82.30
2023-02-16T18:00:22.521Z,82.80
2023-02-16T18:02:49.116Z,82.80
2023-02-16T18:05:15.803Z,82.90
2023-02-16T18:07:42.521Z,82.90
2023-02-16T18:10:15.457Z,83.20
2023-02-16T18:12:42.072Z,83.10
2023-02-16T18:15:08.896Z,83.50
2023-02-16T18:17:35.547Z,83.90
2023-02-16T18:20:02.597Z,84.30
2023-02-16T18:22:29.283Z,84.20
2023-02-16T18:24:55.966Z,84.30
2023-02-16T18:27:22.588Z,84.40
2023-02-16T18:29:49.307Z,84.40
2023-02-16T18:32:16.102Z,85.00
2023-02-16T18:34:42.760Z,84.90
2023-02-16T18:37:09.922Z,85.00
2023-02-16T18:39:36.697Z,85.20
2023-02-16T18:42:03.499Z,85.50
2023-02-16T18:44:30.214Z,85.70
2023-02-16T18:46:56.847Z,86.20
2023-02-16T18:49:23.508Z,86.70
2023-02-16T18:51:50.183Z,86.70
2023-02-16T18:54:16.798Z,86.90
2023-02-16T18:56:43.570Z,87.30
2023-02-16T18:59:10.272Z,87.60
2023-02-16T19:01:36.956Z,87.70
2023-02-16T19:04:03.828Z,88.50
2023-02-16T19:06:30.548Z,88.30
2023-02-16T19:08:57.204Z,88.80
2023-02-16T19:11:23.867Z,88.80
2023-02-16T19:13:50.600Z,89.20
2023-02-16T19:16:17.343Z,89.20
2023-02-16T19:18:43.999Z,89.40
2023-02-16T19:21:11.224Z,89.30
2023-02-16T19:23:38.043Z,89.40
2023-02-16T19:26:13.159Z,89.80
2023-02-16T19:28:40.009Z,89.50
2023-02-16T19:31:08.860Z,89.90
2023-02-16T19:33:35.733Z,90.20
2023-02-16T19:36:07.123Z,90.10
2023-02-16T19:38:33.927Z,90.50
2023-02-16T19:41:00.956Z,90.50
2023-02-16T19:43:27.618Z,90.60
2023-02-16T19:45:54.405Z,90.50
2023-02-16T19:48:21.095Z,90.90
2023-02-16T19:50:47.748Z,90.80
2023-02-16T19:53:14.467Z,90.70
2023-02-16T19:55:44.132Z,90.70
2023-02-16T19:58:10.743Z,90.80
2023-02-16T20:00:37.570Z,90.90
2023-02-16T20:03:04.440Z,91.50
2023-02-16T20:05:31.171Z,91.20
2023-02-16T20:07:58.202Z,91.60
2023-02-16T20:10:24.906Z,91.40
2023-02-16T20:12:51.488Z,91.40
2023-02-16T20:15:18.274Z,91.70
2023-02-16T20:17:44.944Z,91.80
2023-02-16T20:20:11.934Z,91.70
2023-02-16T20:22:38.621Z,91.90
2023-02-16T20:25:05.553Z,91.80
2023-02-16T20:27:32.242Z,91.60
2023-02-16T20:29:59.033Z,91.50
2023-02-16T20:32:26.260Z,91.40
2023-02-16T20:34:52.870Z,91.50
2023-02-16T20:37:19.565Z,91.50
2023-02-16T20:39:46.239Z,91.40
2023-02-16T20:42:12.895Z,91.50
2023-02-16T20:44:39.537Z,91.80
2023-02-16T20:47:06.184Z,91.60
2023-02-16T20:49:34.181Z,91.70
2023-02-16T20:52:00.859Z,91.70
2023-02-16T20:54:27.590Z,91.60
2023-02-16T20:56:54.344Z,91.30
2023-02-16T20:59:21.000Z,91.20
2023-02-16T21:01:48.736Z,91.20
2023-02-16T21:04:17.619Z,91.30
2023-02-16T21:06:44.362Z,91.30
2023-02-16T21:09:11.146Z,91.20
2023-02-16T21:11:38.073Z,91.30
2023-02-16T21:14:05.825Z,91.40
2023-02-16T21:16:32.866Z,91.30
2023-02-16T21:18:59.536Z,91.20
2023-02-16T21:21:26.367Z,91.20
2023-02-16T21:23:53.708Z,91.20
2023-02-16T21:26:21.361Z,91.20
2023-02-16T21:28:48.015Z,91.20
2023-02-16T21:31:17.187Z,91.30
2023-02-16T21:33:43.917Z,91.20
2023-02-16T21:36:18.377Z,91.10
2023-02-16T21:38:45.090Z,91.10
2023-02-16T21:41:19.882Z,91.00
2023-02-16T21:43:46.589Z,91.00
2023-02-16T21:46:13.324Z,91.10
2023-02-16T21:48:39.961Z,91.00
2023-02-16T21:51:06.639Z,91.20
2023-02-16T21:53:33.218Z,91.20
2023-02-16T21:56:07.615Z,91.20
2023-02-16T21:58:34.553Z,91.20
2023-02-16T22:01:01.305Z,91.20
2023-02-16T22:03:28.213Z,91.10
2023-02-16T22:05:54.840Z,91.10
2023-02-16T22:08:21.566Z,91.00
2023-02-16T22:10:48.234Z,90.90
2023-02-16T22:13:14.931Z,90.80
2023-02-16T22:15:41.573Z,90.70
2023-02-16T22:18:08.178Z,90.70
2023-02-16T22:20:34.892Z,90.50
2023-02-16T22:23:02.063Z,90.30
2023-02-16T22:25:28.670Z,90.40
2023-02-16T22:27:55.541Z,90.20
2023-02-16T22:30:22.329Z,90.20
2023-02-16T22:32:49.630Z,90.10
2023-02-16T22:35:16.408Z,90.00
2023-02-16T22:37:43.029Z,90.00
2023-02-16T22:40:09.886Z,90.00
2023-02-16T22:42:36.501Z,89.90
2023-02-16T22:45:03.750Z,89.80
2023-02-16T22:47:30.421Z,89.70
2023-02-16T22:49:57.160Z,89.70
2023-02-16T22:52:23.901Z,89.70
2023-02-16T22:54:50.950Z,89.70
2023-02-16T22:57:17.788Z,89.70
2023-02-16T22:59:44.488Z,89.60
2023-02-16T23:02:11.171Z,89.60
2023-02-16T23:04:37.927Z,89.60
2023-02-16T23:07:07.479Z,89.50
2023-02-16T23:09:34.168Z,89.50
2023-02-16T23:12:00.892Z,89.40
2023-02-16T23:14:29.195Z,89.20
2023-02-16T23:16:55.983Z,89.20
2023-02-16T23:19:24.793Z,89.20
2023-02-16T23:21:51.659Z,89.10
2023-02-16T23:24:20.342Z,89.10
2023-02-16T23:26:47.073Z,89.00
2023-02-16T23:29:13.816Z,89.00
2023-02-16T23:31:41.400Z,88.90
2023-02-16T23:34:08.317Z,88.80
2023-02-16T23:36:35.928Z,88.80
2023-02-16T23:39:04.588Z,88.60
2023-02-16T23:41:31.283Z,88.60
2023-02-16T23:43:59.983Z,88.50
2023-02-16T23:46:27.617Z,88.40
2023-02-16T23:48:54.272Z,88.30
2023-02-16T23:51:20.979Z,88.20
2023-02-16T23:53:47.665Z,88.10
2023-02-16T23:56:17.018Z,88.10
2023-02-16T23:58:44.059Z,88.00
